createdAt,value
2023-01-28T00:01:37.814Z,12.8
2023-01-28T00:05:43.108Z,13.7
2023-01-28T00:10:28.508Z,11.7
2023-01-28T00:15:17.464Z,12.7
2023-01-28T00:20:39.538Z,11.5
2023-01-28T00:25:28.726Z,13.0
2023-01-28T00:30:17.336Z,11.6
2023-01-28T00:35:23.394Z,12.8
2023-01-28T00:40:49.627Z,12.8
2023-01-28T00:45:18.361Z,13.0
2023-01-28T00:50:24.595Z,11.4
2023-01-28T00:55:30.479Z,11.0
2023-01-28T01:00:54.096Z,11.2
2023-01-28T01:05:25.957Z,10.5
2023-01-28T01:10:32.049Z,12.7
2023-01-28T01:15:21.135Z,11.1
2023-01-28T01:20:46.430Z,11.3
2023-01-28T01:25:33.051Z,10.9
2023-01-28T01:30:21.305Z,10.3
2023-01-28T01:35:28.429Z,10.8
2023-01-28T01:40:17.419Z,11.1
2023-01-28T01:45:22.524Z,10.1
2023-01-28T01:50:28.417Z,11.2
2023-01-28T01:55:35.066Z,11.4
2023-01-28T02:01:33.084Z,11.1
2023-01-28T02:05:35.437Z,10.5
2023-01-28T02:10:20.038Z,10.1
2023-01-28T02:15:26.150Z,10.5
2023-01-28T02:20:50.915Z,11.0
2023-01-28T02:25:20.438Z,10.1
2023-01-28T02:30:25.584Z,10.1
2023-01-28T02:35:31.722Z,10.6
2023-01-28T02:40:44.315Z,11.1
2023-01-28T02:45:26.771Z,11.6
2023-01-28T02:50:32.868Z,11.9
2023-01-28T02:55:21.795Z,11.0
2023-01-28T03:00:58.270Z,11.1
2023-01-28T03:05:34.804Z,11.6
2023-01-28T03:10:22.675Z,11.7
2023-01-28T03:15:28.501Z,12.4
2023-01-28T03:20:36.820Z,12.4
2023-01-28T03:25:23.617Z,12.2
2023-01-28T03:30:31.117Z,13.0
2023-01-28T03:35:18.967Z,11.8
2023-01-28T03:40:46.036Z,13.8
2023-01-28T03:45:47.414Z,13.3
2023-01-28T03:50:20.053Z,15.0
2023-01-28T03:55:25.552Z,13.4
2023-01-28T04:01:26.213Z,13.7
2023-01-28T04:05:27.004Z,13.2
2023-01-28T04:10:26.601Z,14.0
2023-01-28T04:15:32.665Z,13.4
2023-01-28T04:20:38.403Z,13.5
2023-01-28T04:25:27.755Z,14.4
2023-01-28T04:30:17.081Z,14.3
2023-01-28T04:35:23.329Z,15.3
2023-01-28T04:40:49.953Z,14.9
2023-01-28T04:45:18.244Z,15.1
2023-01-28T04:50:24.621Z,16.4
2023-01-28T04:55:30.529Z,15.7
2023-01-28T05:00:46.231Z,18.0
2023-01-28T05:05:25.091Z,18.1
2023-01-28T05:10:30.567Z,20.9
2023-01-28T05:15:20.427Z,20.1
2023-01-28T05:20:43.786Z,19.7
2023-01-28T05:25:32.012Z,22.3
2023-01-28T05:30:20.524Z,22.3
2023-01-28T05:35:26.687Z,21.2
2023-01-28T05:40:53.487Z,21.8
2023-01-28T05:45:21.739Z,19.9
2023-01-28T05:50:31.901Z,19.9
2023-01-28T05:55:18.493Z,21.3
2023-01-28T06:01:11.591Z,20.0
2023-01-28T06:05:35.288Z,19.3
2023-01-28T06:10:19.906Z,19.0
2023-01-28T06:15:25.871Z,18.0
2023-01-28T06:20:54.867Z,19.1
2023-01-28T06:25:18.925Z,22.1
2023-01-28T06:30:24.762Z,21.4
2023-01-28T06:35:30.934Z,19.5
2023-01-28T06:40:59.532Z,21.1
2023-01-28T06:45:25.899Z,22.1
2023-01-28T06:50:32.035Z,22.5
2023-01-28T06:55:21.042Z,23.4
2023-01-28T07:00:54.361Z,21.4
2023-01-28T07:05:33.133Z,21.0
2023-01-28T07:10:22.078Z,22.8
2023-01-28T07:15:28.049Z,21.8
2023-01-28T07:20:34.051Z,25.0
2023-01-28T07:25:23.190Z,23.0
2023-01-28T07:30:30.215Z,22.8
2023-01-28T07:35:17.977Z,23.8
2023-01-28T09:55:33.008Z,6.9
2023-01-28T10:01:37.047Z,6.7
2023-01-28T10:05:33.901Z,6.9
2023-01-28T10:10:18.546Z,7.5
2023-01-28T10:15:24.229Z,6.4
2023-01-28T10:20:49.551Z,5.7
2023-01-28T10:25:18.587Z,6.8
2023-01-28T10:30:24.298Z,6.4
2023-01-28T10:35:18.691Z,6.3
2023-01-28T10:40:35.955Z,5.8
2023-01-28T10:45:25.432Z,5.9
2023-01-28T10:50:48.031Z,6.0
2023-01-28T10:55:20.579Z,6.9
2023-01-28T11:01:17.835Z,6.5
2023-01-28T11:05:33.446Z,6.0
2023-01-28T11:10:22.159Z,8.7
2023-01-28T11:15:28.699Z,8.2
2023-01-28T11:20:32.056Z,6.0
2023-01-28T11:25:42.642Z,6.3
2023-01-28T11:30:29.161Z,7.6
2023-01-28T11:35:34.351Z,10.6
2023-01-28T11:40:47.559Z,7.2
2023-01-28T11:45:30.235Z,7.5
2023-01-28T11:50:19.722Z,7.6
2023-01-28T11:55:25.266Z,8.0
2023-01-28T12:01:18.865Z,6.2
2023-01-28T12:05:26.023Z,6.9
2023-01-28T12:10:28.948Z,8.6
2023-01-28T12:15:24.754Z,8.7
2023-01-28T12:20:36.470Z,6.5
2023-01-28T12:25:27.418Z,7.0
2023-01-28T12:30:49.049Z,6.8
2023-01-28T12:35:21.541Z,6.9
2023-01-28T12:40:47.192Z,6.0
2023-01-28T12:45:22.081Z,5.8
2023-01-28T12:50:40.640Z,6.4
2023-01-28T12:55:28.174Z,5.3
2023-01-28T13:00:38.061Z,6.3
2023-01-28T13:05:23.771Z,6.2
2023-01-28T13:10:30.185Z,5.7
2023-01-28T13:15:18.912Z,6.0
2023-01-28T13:20:44.581Z,6.1
2023-01-28T13:25:31.106Z,6.4
2023-01-28T13:30:20.064Z,8.0
2023-01-28T13:35:26.147Z,6.3
2023-01-28T13:40:51.867Z,7.0
2023-01-28T13:45:21.200Z,6.6
2023-01-28T13:50:39.680Z,5.7
2023-01-28T13:55:43.558Z,7.3
2023-01-28T14:00:48.890Z,44.0
2023-01-28T14:05:34.307Z,7.5
2023-01-28T14:10:18.457Z,7.6
2023-01-28T14:15:24.172Z,6.7
2023-01-28T14:20:53.121Z,7.0
2023-01-28T14:25:18.701Z,7.8
2023-01-28T14:30:24.578Z,7.4
2023-01-28T14:35:30.329Z,8.0
2023-01-28T14:40:40.200Z,6.1
2023-01-28T14:45:25.440Z,6.3
2023-01-28T14:50:31.537Z,6.9
2023-01-28T14:55:37.120Z,6.5
2023-01-28T15:00:54.052Z,6.6
2023-01-28T15:05:33.382Z,7.0
2023-01-28T15:10:22.259Z,7.1
2023-01-28T15:15:28.162Z,7.4
2023-01-28T15:20:18.180Z,11.3
2023-01-28T15:25:23.439Z,11.8
2023-01-28T15:30:28.583Z,7.8
2023-01-28T15:35:17.405Z,6.9
2023-01-28T15:40:42.591Z,7.1
2023-01-28T15:45:29.616Z,7.4
2023-01-28T15:50:18.728Z,7.7
2023-01-28T15:55:25.868Z,7.4
2023-01-28T16:01:56.560Z,8.2
2023-01-28T16:05:25.727Z,7.3
2023-01-28T16:10:30.260Z,9.0
2023-01-28T16:15:35.830Z,10.3
2023-01-28T16:20:39.579Z,9.1
2023-01-28T16:25:26.751Z,8.7
2023-01-28T16:30:33.297Z,8.8
2023-01-28T16:35:22.219Z,8.2
2023-01-28T16:40:46.258Z,9.2
2023-01-28T16:45:17.791Z,20.3
2023-01-28T16:50:23.396Z,11.4
2023-01-28T16:55:29.427Z,9.5
2023-01-28T17:00:34.509Z,11.1
2023-01-28T17:05:24.019Z,23.2
2023-01-28T17:10:30.298Z,8.7
2023-01-28T17:15:19.596Z,10.8
2023-01-28T17:20:44.141Z,47.0
2023-01-28T17:25:31.204Z,31.8
2023-01-28T17:30:19.700Z,11.0
2023-01-28T17:35:25.345Z,9.5
2023-01-28T17:40:51.252Z,8.9
2023-01-28T17:45:20.904Z,9.4
2023-01-28T17:50:27.280Z,9.4
2023-01-28T17:55:33.110Z,9.8
2023-01-28T18:01:07.080Z,11.0
2023-01-28T18:05:33.757Z,9.6
2023-01-28T18:10:21.140Z,16.9
2023-01-28T18:15:26.990Z,10.3
2023-01-28T18:20:48.864Z,9.8
2023-01-28T18:25:18.958Z,14.0
2023-01-28T18:30:24.383Z,17.2
2023-01-28T18:35:46.873Z,12.8
2023-01-28T18:40:39.461Z,12.1
2023-01-28T18:45:25.459Z,17.2
2023-01-28T18:50:31.691Z,11.6
2023-01-28T18:55:20.626Z,10.8
2023-01-28T19:00:49.602Z,11.2
2023-01-28T19:05:43.312Z,10.3
2023-01-28T19:10:21.878Z,10.4
2023-01-28T19:15:28.055Z,9.9
2023-01-28T19:20:32.349Z,10.8
2023-01-28T19:25:23.061Z,18.6
2023-01-28T19:30:28.733Z,14.3
2023-01-28T19:35:18.183Z,12.8
2023-01-28T19:40:47.182Z,12.1
2023-01-28T19:45:29.744Z,12.1
2023-01-28T19:50:36.251Z,11.6
2023-01-28T19:55:24.348Z,13.4
2023-01-28T20:01:58.249Z,12.1
2023-01-28T20:05:25.292Z,13.2
2023-01-28T20:10:26.510Z,11.2
2023-01-28T20:20:24.225Z,11.7
2023-01-28T20:30:32.605Z,11.6
2023-01-28T20:35:21.310Z,9.1
2023-01-28T20:40:46.644Z,11.4
2023-01-28T20:45:17.218Z,9.8
2023-01-28T20:50:39.092Z,8.8
2023-01-28T20:55:28.617Z,10.9
2023-01-28T21:00:34.731Z,10.1
2023-01-28T21:05:23.936Z,8.6
2023-01-28T21:10:30.054Z,9.7
2023-01-28T21:15:19.108Z,15.5
2023-01-28T21:20:43.207Z,18.4
2023-01-28T21:25:31.262Z,14.5
2023-01-28T21:30:19.589Z,11.9
2023-01-28T21:35:25.579Z,10.2
2023-01-28T21:40:50.304Z,8.9
2023-01-28T21:45:20.668Z,10.6
2023-01-28T21:50:27.189Z,9.1
2023-01-28T21:55:32.807Z,7.6
2023-01-28T22:00:49.450Z,8.6
2023-01-28T22:05:33.278Z,8.3
2023-01-28T22:10:33.833Z,9.6
2023-01-28T22:15:24.056Z,9.2
2023-01-28T22:20:49.344Z,9.2
2023-01-28T22:25:18.396Z,13.1
2023-01-28T22:30:23.869Z,20.4
2023-01-28T22:35:30.214Z,9.7
2023-01-28T22:40:37.241Z,9.2
2023-01-28T22:45:25.091Z,9.6
2023-01-28T22:50:31.184Z,10.1
2023-01-28T22:55:20.257Z,10.1
2023-01-28T23:00:50.441Z,9.5
2023-01-28T23:05:31.506Z,8.8
2023-01-28T23:10:20.844Z,9.7
2023-01-28T23:15:43.792Z,9.4
2023-01-28T23:21:01.739Z,9.7
2023-01-28T23:25:21.794Z,10.2
2023-01-28T23:30:27.763Z,10.4
2023-01-28T23:35:16.835Z,9.8
2023-01-28T23:40:42.795Z,9.4
2023-01-28T23:45:28.923Z,9.5
2023-01-28T23:50:29.247Z,9.9
2023-01-28T23:55:36.316Z,9.0
